createdAt,value
2018-12-27T00:00:22.461Z,46.70
2018-12-27T00:02:54.877Z,42.73
2018-12-27T00:05:18.751Z,44.25
2018-12-27T00:07:46.107Z,44.77
2018-12-27T00:10:13.358Z,43.58
2018-12-27T00:12:40.718Z,47.23
2018-12-27T00:15:07.974Z,46.98
2018-12-27T00:17:35.024Z,43.33
2018-12-27T00:20:02.168Z,50.20
2018-12-27T00:22:29.223Z,43.45
2018-12-27T00:24:56.186Z,47.38
2018-12-27T00:27:23.287Z,71.82
2018-12-27T00:29:50.583Z,42.35
2018-12-27T00:32:18.019Z,45.15
2018-12-27T00:34:45.270Z,41.50
2018-12-27T00:37:12.022Z,44.67
2018-12-27T00:39:39.043Z,44.80
2018-12-27T00:42:06.105Z,57.43
2018-12-27T00:44:33.259Z,45.12
2018-12-27T00:47:00.715Z,38.95
2018-12-27T00:49:27.861Z,34.45
2018-12-27T00:51:55.439Z,44.80
2018-12-27T00:54:22.608Z,42.25
2018-12-27T00:56:49.811Z,43.55
2018-12-27T00:59:16.962Z,45.70
2018-12-27T01:01:44.316Z,53.58
2018-12-27T01:04:11.314Z,53.08
2018-12-27T01:06:38.457Z,45.83
2018-12-27T01:09:05.231Z,46.20
2018-12-27T01:11:32.255Z,42.30
2018-12-27T01:14:00.083Z,44.90
2018-12-27T01:16:27.239Z,43.80
2018-12-27T01:18:54.586Z,44.80
2018-12-27T01:21:21.970Z,42.53
2018-12-27T01:23:49.474Z,51.05
2018-12-27T01:26:16.652Z,51.25
2018-12-27T01:28:43.666Z,53.70
2018-12-27T01:31:10.670Z,47.75
2018-12-27T01:33:37.721Z,43.02
2018-12-27T01:36:04.865Z,58.00
2018-12-27T01:38:32.611Z,47.33
2018-12-27T01:41:00.275Z,61.15
2018-12-27T01:43:27.399Z,56.33
2018-12-27T01:45:54.852Z,46.15
2018-12-27T01:48:21.628Z,45.98
2018-12-27T01:50:48.908Z,52.70
2018-12-27T01:53:15.881Z,48.02
2018-12-27T01:55:43.254Z,60.88
2018-12-27T01:58:10.839Z,51.70
2018-12-27T02:00:38.199Z,49.10
2018-12-27T02:03:05.231Z,45.63
2018-12-27T02:05:32.086Z,55.45
2018-12-27T02:07:59.114Z,47.10
2018-12-27T02:10:26.161Z,54.03
2018-12-27T02:12:53.226Z,50.85
2018-12-27T02:15:20.371Z,59.38
2018-12-27T02:17:48.004Z,52.53
2018-12-27T02:20:15.498Z,56.28
2018-12-27T02:22:43.471Z,53.23
2018-12-27T02:25:11.095Z,57.17
2018-12-27T02:27:38.399Z,54.80
2018-12-27T02:30:05.425Z,61.88
2018-12-27T02:32:32.989Z,56.05
2018-12-27T02:35:00.243Z,53.90
2018-12-27T02:37:27.523Z,59.80
2018-12-27T02:39:54.665Z,62.83
2018-12-27T02:42:22.004Z,56.68
2018-12-27T02:44:49.634Z,53.52
2018-12-27T02:47:16.743Z,58.87
2018-12-27T02:49:43.755Z,53.20
2018-12-27T02:52:10.545Z,58.00
2018-12-27T02:54:38.062Z,70.12
2018-12-27T02:57:05.118Z,71.17
2018-12-27T02:59:32.455Z,66.22
2018-12-27T03:01:59.840Z,72.72
2018-12-27T03:04:26.844Z,93.55
2018-12-27T03:06:54.811Z,53.92
2018-12-27T03:09:22.398Z,58.70
2018-12-27T03:11:49.785Z,58.38
2018-12-27T03:14:17.482Z,58.17
2018-12-27T03:16:44.239Z,66.02
2018-12-27T03:19:11.819Z,57.88
2018-12-27T03:21:38.904Z,54.45
2018-12-27T03:24:06.001Z,56.02
2018-12-27T03:26:33.075Z,58.02
2018-12-27T03:29:00.548Z,55.75
2018-12-27T03:31:27.886Z,63.08
2018-12-27T03:33:54.792Z,57.27
2018-12-27T03:36:21.810Z,56.90
2018-12-27T03:38:48.844Z,66.75
2018-12-27T03:41:15.758Z,54.27
2018-12-27T03:43:42.766Z,53.90
2018-12-27T03:46:09.527Z,55.63
2018-12-27T03:48:36.614Z,57.95
2018-12-27T03:51:04.153Z,63.35
2018-12-27T03:53:31.188Z,57.10
2018-12-27T03:55:58.554Z,52.48
2018-12-27T03:58:25.970Z,61.60
2018-12-27T04:00:52.735Z,61.35
2018-12-27T04:03:20.126Z,67.05
2018-12-27T04:05:47.769Z,64.05
2018-12-27T04:08:14.787Z,62.48
2018-12-27T04:10:41.816Z,62.75
2018-12-27T04:13:09.238Z,64.77
2018-12-27T04:15:37.093Z,70.50
2018-12-27T04:18:04.346Z,69.45
2018-12-27T04:20:32.418Z,65.60
2018-12-27T04:22:59.874Z,56.55
2018-12-27T04:25:27.663Z,64.22
2018-12-27T04:27:54.687Z,62.38
2018-12-27T04:30:22.267Z,62.73
2018-12-27T04:32:49.866Z,74.77
2018-12-27T04:35:17.674Z,76.82
2018-12-27T04:37:45.028Z,68.05
2018-12-27T04:40:12.060Z,59.00
2018-12-27T04:42:40.503Z,64.00
2018-12-27T04:45:07.611Z,67.05
2018-12-27T04:47:34.377Z,72.15
2018-12-27T04:50:01.748Z,84.80
2018-12-27T04:52:28.618Z,90.00
2018-12-27T04:54:55.633Z,71.20
2018-12-27T04:57:23.308Z,67.95
2018-12-27T04:59:50.730Z,67.80
2018-12-27T05:02:17.823Z,69.00
2018-12-27T05:04:44.843Z,63.15
2018-12-27T05:07:11.927Z,65.78
2018-12-27T05:09:39.044Z,62.98
2018-12-27T05:12:06.431Z,57.75
2018-12-27T05:14:33.183Z,56.60
2018-12-27T05:17:00.190Z,64.45
2018-12-27T05:19:28.119Z,60.17
2018-12-27T05:21:55.882Z,64.53
2018-12-27T05:24:23.007Z,60.03
2018-12-27T05:26:50.301Z,64.90
2018-12-27T05:29:17.678Z,63.33
2018-12-27T05:31:44.495Z,85.67
2018-12-27T05:34:11.974Z,71.10
2018-12-27T05:36:38.740Z,58.30
2018-12-27T05:39:05.821Z,60.08
2018-12-27T05:41:32.883Z,61.18
2018-12-27T05:43:59.954Z,74.85
2018-12-27T05:46:26.943Z,78.92
2018-12-27T05:48:54.037Z,78.87
2018-12-27T05:51:21.594Z,72.30
2018-12-27T05:53:49.511Z,78.55
2018-12-27T05:56:16.443Z,106.75
2018-12-27T05:58:43.198Z,96.63
2018-12-27T06:01:10.600Z,80.05
2018-12-27T06:03:37.993Z,88.95
2018-12-27T06:06:05.241Z,76.57
2018-12-27T06:08:32.766Z,80.25
2018-12-27T06:11:00.047Z,70.60
2018-12-27T06:13:27.476Z,83.03
2018-12-27T06:15:55.135Z,74.85
2018-12-27T06:18:22.547Z,97.60
2018-12-27T06:20:49.643Z,85.22
2018-12-27T06:23:16.531Z,86.47
2018-12-27T06:25:43.943Z,88.15
2018-12-27T06:28:11.022Z,92.45
2018-12-27T06:30:38.458Z,89.95
2018-12-27T06:33:05.826Z,86.22
2018-12-27T06:35:32.664Z,84.05
2018-12-27T06:37:59.714Z,70.08
2018-12-27T06:40:26.731Z,83.07
2018-12-27T06:42:53.581Z,84.05
2018-12-27T06:45:20.892Z,86.22
2018-12-27T06:47:48.494Z,88.25
2018-12-27T06:50:15.570Z,70.32
2018-12-27T06:52:42.716Z,74.67
2018-12-27T06:55:10.710Z,71.95
2018-12-27T06:57:38.449Z,68.40
2018-12-27T07:00:05.770Z,69.70
2018-12-27T07:02:32.959Z,67.95
2018-12-27T07:04:59.899Z,67.12
2018-12-27T07:07:27.379Z,71.02
2018-12-27T07:09:54.631Z,67.32
2018-12-27T07:12:21.846Z,68.95
2018-12-27T07:14:49.342Z,85.87
2018-12-27T07:17:16.343Z,75.62
2018-12-27T07:19:43.956Z,79.15
2018-12-27T07:22:10.763Z,76.40
2018-12-27T07:24:37.965Z,74.37
2018-12-27T07:27:05.054Z,79.67
2018-12-27T07:29:32.438Z,74.03
2018-12-27T07:31:59.990Z,73.15
2018-12-27T07:34:26.860Z,81.15
2018-12-27T07:36:54.590Z,75.12
2018-12-27T07:39:21.880Z,83.12
2018-12-27T07:41:49.046Z,76.35
2018-12-27T07:44:16.798Z,72.20
2018-12-27T07:46:43.570Z,75.52
2018-12-27T07:49:10.582Z,72.03
2018-12-27T07:51:37.350Z,75.87
2018-12-27T07:54:05.051Z,71.00
2018-12-27T07:56:32.249Z,73.07
2018-12-27T07:58:59.678Z,62.70
2018-12-27T08:01:26.905Z,65.37
2018-12-27T08:03:54.186Z,60.63
2018-12-27T08:06:22.443Z,65.22
2018-12-27T08:08:49.476Z,60.20
2018-12-27T08:11:16.855Z,57.65
2018-12-27T08:13:44.027Z,55.55
2018-12-27T08:16:11.844Z,55.50
2018-12-27T08:18:39.179Z,58.98
2018-12-27T08:21:07.070Z,54.95
2018-12-27T08:23:34.805Z,58.73
2018-12-27T08:26:01.954Z,57.33
2018-12-27T08:28:28.971Z,62.98
2018-12-27T08:30:56.753Z,68.87
2018-12-27T08:33:23.502Z,62.93
2018-12-27T08:35:50.530Z,59.67
2018-12-27T08:38:17.278Z,62.65
2018-12-27T08:40:44.030Z,58.83
2018-12-27T08:43:11.908Z,67.72
2018-12-27T08:45:38.986Z,62.83
2018-12-27T08:48:06.090Z,63.20
2018-12-27T08:50:33.512Z,68.12
2018-12-27T08:53:00.862Z,69.50
2018-12-27T08:55:28.342Z,70.55
2018-12-27T08:57:55.349Z,68.85
2018-12-27T09:00:23.214Z,65.67
2018-12-27T09:02:49.977Z,64.55
2018-12-27T09:05:19.047Z,63.58
2018-12-27T09:07:46.613Z,64.60
2018-12-27T09:10:13.984Z,63.98
2018-12-27T09:12:41.399Z,63.25
2018-12-27T09:15:08.384Z,56.88
2018-12-27T09:17:35.152Z,62.70
2018-12-27T09:20:02.002Z,66.37
2018-12-27T09:22:29.102Z,64.58
2018-12-27T09:24:56.665Z,62.20
2018-12-27T09:27:23.954Z,68.78
2018-12-27T09:29:51.312Z,49.55
2018-12-27T09:32:18.322Z,55.65
2018-12-27T09:34:45.473Z,64.77
2018-12-27T09:37:12.658Z,66.80
2018-12-27T09:39:39.409Z,70.15
2018-12-27T09:42:06.813Z,63.75
2018-12-27T09:44:34.846Z,75.28
2018-12-27T09:47:01.630Z,69.03
2018-12-27T09:49:28.426Z,71.65
2018-12-27T09:52:01.886Z,73.67
2018-12-27T09:54:25.065Z,68.60
2018-12-27T09:56:52.038Z,77.32
2018-12-27T09:59:19.160Z,71.42
2018-12-27T10:01:46.256Z,82.85
2018-12-27T10:04:13.366Z,79.22
2018-12-27T10:06:40.987Z,90.70
2018-12-27T10:09:07.743Z,86.87
2018-12-27T10:11:34.778Z,89.50
2018-12-27T10:14:01.812Z,87.88
2018-12-27T10:16:29.020Z,89.42
2018-12-27T10:18:56.027Z,78.75
2018-12-27T10:21:23.027Z,90.07
2018-12-27T10:23:50.351Z,94.35
2018-12-27T10:26:17.425Z,94.15
2018-12-27T10:28:44.451Z,84.15
2018-12-27T10:31:11.738Z,82.72
2018-12-27T10:33:39.387Z,82.40
2018-12-27T10:36:06.478Z,84.60
2018-12-27T10:38:33.264Z,88.03
2018-12-27T10:41:00.347Z,76.30
2018-12-27T10:43:27.454Z,84.90
2018-12-27T10:45:54.890Z,89.20
2018-12-27T10:48:22.023Z,84.80
2018-12-27T10:50:49.123Z,98.67
2018-12-27T10:53:15.890Z,100.95
2018-12-27T10:55:43.010Z,89.22
2018-12-27T10:58:10.134Z,100.72
2018-12-27T11:00:37.688Z,87.33
2018-12-27T11:03:04.451Z,85.30
2018-12-27T11:05:31.746Z,82.85
2018-12-27T11:07:59.126Z,84.75
2018-12-27T11:10:26.137Z,80.55
2018-12-27T11:12:53.440Z,87.40
2018-12-27T11:15:20.678Z,89.60
2018-12-27T11:17:47.738Z,86.08
2018-12-27T11:20:14.962Z,102.20
2018-12-27T11:22:41.994Z,88.52
2018-12-27T11:25:08.881Z,75.08
2018-12-27T11:27:35.940Z,93.20
2018-12-27T11:30:03.027Z,87.33
2018-12-27T11:32:30.152Z,88.17
2018-12-27T11:34:57.164Z,86.53
2018-12-27T11:37:24.469Z,86.95
2018-12-27T11:39:51.864Z,80.65
2018-12-27T11:42:19.190Z,84.30
2018-12-27T11:44:46.586Z,82.05
2018-12-27T11:47:13.748Z,83.27
2018-12-27T11:49:41.194Z,80.17
2018-12-27T11:52:08.321Z,76.10
2018-12-27T11:54:35.598Z,84.87
2018-12-27T11:57:02.487Z,87.97
2018-12-27T11:59:29.499Z,79.62
2018-12-27T12:01:56.652Z,95.05
2018-12-27T12:04:23.902Z,80.45
2018-12-27T12:06:51.161Z,75.83
2018-12-27T12:09:18.528Z,79.05
2018-12-27T12:11:45.294Z,78.15
2018-12-27T12:14:12.361Z,79.50
2018-12-27T12:16:39.774Z,70.20
2018-12-27T12:19:06.589Z,75.60
2018-12-27T12:21:33.947Z,79.17
2018-12-27T12:24:01.096Z,77.32
2018-12-27T12:26:28.234Z,75.65
2018-12-27T12:28:55.290Z,87.02
2018-12-27T12:31:22.058Z,77.42
2018-12-27T12:33:49.286Z,77.45
2018-12-27T12:36:16.118Z,78.00
2018-12-27T12:38:43.953Z,87.15
2018-12-27T12:41:11.047Z,90.07
2018-12-27T12:43:38.616Z,81.10
2018-12-27T12:46:05.972Z,85.32
2018-12-27T12:48:32.740Z,76.40
2018-12-27T12:50:59.726Z,76.75
2018-12-27T12:53:27.124Z,73.47
2018-12-27T12:55:54.513Z,79.15
2018-12-27T12:58:21.420Z,79.37
2018-12-27T13:00:48.676Z,74.95
2018-12-27T13:03:16.056Z,80.20
2018-12-27T13:05:42.790Z,75.25
2018-12-27T13:08:09.663Z,73.25
2018-12-27T13:10:36.725Z,69.72
2018-12-27T13:13:03.611Z,72.27
2018-12-27T13:15:30.648Z,71.40
2018-12-27T13:17:57.884Z,75.37
2018-12-27T13:20:24.991Z,76.47
2018-12-27T13:22:52.907Z,73.30
2018-12-27T13:25:19.659Z,69.55
2018-12-27T13:27:47.006Z,78.20
2018-12-27T13:30:14.222Z,70.25
2018-12-27T13:32:41.083Z,77.40
2018-12-27T13:35:08.210Z,78.92
2018-12-27T13:37:34.968Z,78.87
2018-12-27T13:40:02.645Z,78.25
2018-12-27T13:42:29.979Z,85.65
2018-12-27T13:44:57.562Z,73.02
2018-12-27T13:47:24.582Z,77.30
2018-12-27T13:49:51.346Z,78.90
2018-12-27T13:52:18.398Z,78.60
2018-12-27T13:54:45.756Z,80.60
2018-12-27T13:57:12.518Z,80.25
2018-12-27T13:59:39.806Z,79.22
2018-12-27T14:02:06.811Z,82.25
2018-12-27T14:04:34.151Z,80.28
2018-12-27T14:07:00.894Z,79.72
2018-12-27T14:09:27.959Z,78.80
2018-12-27T14:11:55.300Z,83.70
2018-12-27T14:14:22.643Z,85.60
2018-12-27T14:16:49.698Z,84.07
2018-12-27T14:19:17.626Z,83.80
2018-12-27T14:21:44.779Z,81.47
2018-12-27T14:24:11.870Z,75.37
2018-12-27T14:26:39.237Z,74.30
2018-12-27T14:29:06.683Z,79.65
2018-12-27T14:31:33.798Z,82.33
2018-12-27T14:34:00.869Z,76.97
2018-12-27T14:36:28.088Z,79.42
2018-12-27T14:38:55.321Z,84.87
2018-12-27T14:41:22.119Z,77.03
2018-12-27T14:43:49.807Z,79.77
2018-12-27T14:46:17.068Z,74.47
2018-12-27T14:48:44.508Z,76.20
2018-12-27T14:51:11.691Z,79.37
2018-12-27T14:53:39.109Z,76.60
2018-12-27T14:56:06.209Z,75.80
2018-12-27T14:58:33.210Z,76.70
2018-12-27T15:01:00.510Z,73.22
2018-12-27T15:03:27.546Z,71.40
2018-12-27T15:05:54.810Z,74.50
2018-12-27T15:08:21.905Z,84.10
2018-12-27T15:10:49.376Z,71.40
2018-12-27T15:13:17.385Z,73.10
2018-12-27T15:15:44.311Z,81.80
2018-12-27T15:18:11.529Z,81.35
2018-12-27T15:20:38.995Z,79.47
2018-12-27T15:23:06.772Z,73.02
2018-12-27T15:25:34.792Z,74.95
2018-12-27T15:28:02.155Z,84.60
2018-12-27T15:30:29.466Z,80.20
2018-12-27T15:32:56.294Z,82.10
2018-12-27T15:35:23.534Z,79.07
2018-12-27T15:37:50.559Z,74.80
2018-12-27T15:40:18.543Z,72.40
2018-12-27T15:42:46.262Z,65.20
2018-12-27T15:45:13.342Z,69.05
2018-12-27T15:47:40.814Z,69.07
2018-12-27T15:50:08.303Z,73.22
2018-12-27T15:52:35.834Z,63.98
2018-12-27T15:55:02.906Z,62.20
2018-12-27T15:57:30.005Z,67.53
2018-12-27T15:59:56.778Z,61.45
2018-12-27T16:02:23.542Z,95.15
2018-12-27T16:04:50.980Z,163.00
2018-12-27T16:07:17.994Z,62.38
2018-12-27T16:09:45.130Z,50.80
2018-12-27T16:12:11.931Z,51.58
2018-12-27T16:14:39.882Z,52.53
2018-12-27T16:17:07.455Z,50.65
2018-12-27T16:19:35.293Z,49.53
2018-12-27T16:22:02.383Z,47.90
2018-12-27T16:24:29.587Z,46.35
2018-12-27T16:26:57.103Z,48.80
2018-12-27T16:29:23.934Z,47.70
2018-12-27T16:31:50.699Z,54.05
2018-12-27T16:34:18.034Z,48.23
2018-12-27T16:36:44.962Z,51.70
2018-12-27T16:39:12.218Z,43.70
2018-12-27T16:41:39.607Z,44.30
2018-12-27T16:44:06.572Z,46.58
2018-12-27T16:46:33.965Z,40.60
2018-12-27T16:49:01.422Z,45.85
2018-12-27T16:51:28.827Z,49.80
2018-12-27T16:53:55.592Z,51.65
2018-12-27T16:56:22.736Z,46.37
2018-12-27T16:58:50.707Z,47.88
2018-12-27T17:01:17.797Z,51.20
2018-12-27T17:03:44.785Z,51.08
2018-12-27T17:06:11.594Z,54.85
2018-12-27T17:08:38.983Z,53.00
2018-12-27T17:11:05.760Z,48.95
2018-12-27T17:13:32.714Z,53.25
2018-12-27T17:15:59.695Z,53.65
2018-12-27T17:18:27.092Z,52.30
2018-12-27T17:20:53.927Z,52.40
2018-12-27T17:23:21.263Z,52.25
2018-12-27T17:25:48.035Z,52.05
2018-12-27T17:28:15.838Z,49.83
2018-12-27T17:30:42.719Z,50.75
2018-12-27T17:33:09.516Z,55.33
2018-12-27T17:35:36.294Z,55.50
2018-12-27T17:38:03.159Z,61.25
2018-12-27T17:40:29.950Z,52.25
2018-12-27T17:42:56.985Z,61.05
2018-12-27T17:45:26.481Z,61.77
2018-12-27T17:47:53.790Z,57.58
2018-12-27T17:50:21.091Z,56.28
2018-12-27T17:52:48.402Z,61.85
2018-12-27T17:55:15.866Z,61.73
2018-12-27T17:57:43.462Z,63.15
2018-12-27T18:00:10.514Z,61.15
2018-12-27T18:02:38.331Z,59.85
2018-12-27T18:05:05.318Z,65.17
2018-12-27T18:07:32.498Z,54.05
2018-12-27T18:09:59.605Z,56.20
2018-12-27T18:12:26.937Z,57.67
2018-12-27T18:15:01.347Z,59.15
2018-12-27T18:17:28.758Z,54.65
2018-12-27T18:19:56.314Z,61.37
2018-12-27T18:22:23.598Z,65.78
2018-12-27T18:24:51.078Z,81.72
2018-12-27T18:27:18.514Z,59.88
2018-12-27T18:29:45.482Z,59.45
2018-12-27T18:32:12.404Z,54.58
2018-12-27T18:34:39.235Z,50.33
2018-12-27T18:37:06.003Z,51.35
2018-12-27T18:39:33.534Z,52.53
2018-12-27T18:42:01.695Z,52.67
2018-12-27T18:44:29.367Z,56.60
2018-12-27T18:46:57.081Z,59.40
2018-12-27T18:49:24.138Z,53.55
2018-12-27T18:51:51.731Z,56.15
2018-12-27T18:54:18.756Z,55.30
2018-12-27T18:56:45.985Z,56.45
2018-12-27T18:59:13.402Z,54.63
2018-12-27T19:01:40.706Z,54.18
2018-12-27T19:04:07.796Z,52.23
2018-12-27T19:06:34.671Z,57.15
2018-12-27T19:09:01.759Z,53.60
2018-12-27T19:12:06.106Z,57.00
2018-12-27T19:14:32.900Z,52.93
2018-12-27T19:17:00.302Z,50.58
2018-12-27T19:19:27.374Z,51.90
2018-12-27T19:22:19.454Z,54.65
2018-12-27T19:24:46.217Z,52.90
2018-12-27T19:27:13.314Z,51.70
2018-12-27T19:29:40.915Z,55.03
2018-12-27T19:32:07.796Z,53.42
2018-12-27T19:34:34.847Z,51.25
2018-12-27T19:37:02.282Z,53.00
2018-12-27T19:39:29.115Z,53.70
2018-12-27T19:41:55.970Z,59.70
2018-12-27T19:44:22.738Z,53.48
2018-12-27T19:46:49.802Z,57.17
2018-12-27T19:49:16.832Z,57.08
2018-12-27T19:51:43.958Z,65.08
2018-12-27T19:54:11.021Z,53.50
2018-12-27T19:56:38.778Z,57.35
2018-12-27T19:59:06.476Z,60.48
2018-12-27T20:01:33.230Z,57.55
2018-12-27T20:04:00.137Z,58.33
2018-12-27T20:06:27.004Z,48.65
2018-12-27T20:08:54.418Z,45.92
2018-12-27T20:11:21.506Z,49.85
2018-12-27T20:13:48.536Z,51.70
2018-12-27T20:16:15.887Z,44.35
2018-12-27T20:18:43.271Z,46.58
2018-12-27T20:21:10.439Z,43.35
2018-12-27T20:23:37.195Z,41.65
2018-12-27T20:26:04.013Z,45.58
2018-12-27T20:28:30.931Z,42.50
2018-12-27T20:30:57.818Z,47.35
2018-12-27T20:33:24.874Z,43.60
2018-12-27T20:35:52.082Z,43.30
2018-12-27T20:38:19.106Z,42.73
2018-12-27T20:40:46.310Z,47.70
2018-12-27T20:43:13.691Z,42.83
2018-12-27T20:45:41.080Z,46.65
2018-12-27T20:48:08.478Z,46.20
2018-12-27T20:50:35.277Z,46.13
2018-12-27T20:53:02.479Z,48.68
2018-12-27T20:55:29.581Z,49.25
2018-12-27T20:57:56.751Z,48.02
2018-12-27T21:00:24.032Z,50.83
2018-12-27T21:02:51.100Z,45.50
2018-12-27T21:05:18.534Z,43.30
2018-12-27T21:07:46.231Z,43.68
2018-12-27T21:10:13.497Z,65.78
2018-12-27T21:12:40.756Z,53.80
2018-12-27T21:15:07.930Z,43.13
2018-12-27T21:17:35.255Z,41.25
2018-12-27T21:20:02.465Z,40.00
2018-12-27T21:22:29.875Z,40.23
2018-12-27T21:24:58.121Z,40.75
2018-12-27T21:27:25.998Z,39.35
2018-12-27T21:29:53.496Z,38.73
2018-12-27T21:32:21.429Z,36.95
2018-12-27T21:34:48.276Z,39.40
2018-12-27T21:37:15.138Z,38.42
2018-12-27T21:39:42.839Z,38.60
2018-12-27T21:42:10.528Z,35.35
2018-12-27T21:44:37.830Z,37.23
2018-12-27T21:47:05.267Z,35.30
2018-12-27T21:49:32.358Z,35.50
2018-12-27T21:51:59.118Z,36.80
2018-12-27T21:54:26.443Z,37.78
2018-12-27T21:56:53.307Z,35.38
2018-12-27T21:59:20.794Z,35.65
2018-12-27T22:01:48.223Z,37.55
2018-12-27T22:04:14.995Z,44.25
2018-12-27T22:06:42.455Z,39.35
2018-12-27T22:09:09.929Z,45.33
2018-12-27T22:11:36.922Z,51.60
2018-12-27T22:14:03.804Z,47.95
2018-12-27T22:16:30.733Z,48.05
2018-12-27T22:18:58.101Z,47.50
2018-12-27T22:21:25.406Z,43.48
2018-12-27T22:23:52.269Z,48.60
2018-12-27T22:26:19.376Z,44.98
2018-12-27T22:28:46.160Z,43.68
2018-12-27T22:31:12.911Z,38.75
2018-12-27T22:33:39.674Z,41.77
2018-12-27T22:36:07.130Z,41.00
2018-12-27T22:38:35.800Z,41.80
2018-12-27T22:41:02.902Z,42.53
2018-12-27T22:43:30.027Z,40.45
2018-12-27T22:45:57.562Z,42.27
2018-12-27T22:48:24.354Z,38.90
2018-12-27T22:50:51.686Z,34.92
2018-12-27T22:53:19.038Z,37.28
2018-12-27T22:55:55.910Z,41.30
2018-12-27T22:58:23.366Z,38.10
2018-12-27T23:00:51.874Z,45.48
2018-12-27T23:03:19.663Z,44.85
2018-12-27T23:05:46.729Z,45.83
2018-12-27T23:08:14.415Z,47.05
2018-12-27T23:10:41.315Z,51.05
2018-12-27T23:13:08.369Z,51.50
2018-12-27T23:15:35.470Z,46.77
2018-12-27T23:18:02.818Z,45.40
2018-12-27T23:20:29.858Z,44.90
2018-12-27T23:22:56.614Z,47.50
2018-12-27T23:25:23.413Z,46.53
2018-12-27T23:27:50.534Z,49.15
2018-12-27T23:30:17.407Z,43.48
2018-12-27T23:32:44.847Z,51.70
2018-12-27T23:35:11.723Z,47.80
2018-12-27T23:37:39.130Z,46.00
2018-12-27T23:40:05.915Z,42.30
2018-12-27T23:42:33.033Z,41.83
2018-12-27T23:45:00.374Z,44.90
2018-12-27T23:47:27.634Z,43.68
2018-12-27T23:49:55.250Z,39.80
2018-12-27T23:52:22.578Z,46.00
2018-12-27T23:54:49.981Z,45.92
2018-12-27T23:57:16.881Z,39.55
2018-12-27T23:59:43.922Z,41.30
